sensor_id;sensor_type;location;lat;lon;timestamp;temperature;humidity
11399;DHT22;5755;48.116;11.608;2023-05-10T05:17:33;13.30;99.90
11399;DHT22;5755;48.116;11.608;2023-05-10T05:36:19;12.90;99.90
11399;DHT22;5755;48.116;11.608;2023-05-10T05:42:21;12.90;99.90
11399;DHT22;5755;48.116;11.608;2023-05-10T05:45:02;12.90;99.90
11399;DHT22;5755;48.116;11.608;2023-05-10T06:00:59;12.60;99.90
11399;DHT22;5755;48.116;11.608;2023-05-10T06:03:40;12.60;99.90
11399;DHT22;5755;48.116;11.608;2023-05-10T06:06:07;12.70;99.90
11399;DHT22;5755;48.116;11.608;2023-05-10T06:08:49;12.70;99.90
11399;DHT22;5755;48.116;11.608;2023-05-10T06:22:16;13.00;99.90
11399;DHT22;5755;48.116;11.608;2023-05-10T06:24:57;13.10;99.90
11399;DHT22;5755;48.116;11.608;2023-05-10T06:27:42;13.20;99.90
11399;DHT22;5755;48.116;11.608;2023-05-10T06:30:24;13.20;99.90
11399;DHT22;5755;48.116;11.608;2023-05-10T06:33:12;13.30;99.90
11399;DHT22;5755;48.116;11.608;2023-05-10T06:36:35;13.30;99.90
11399;DHT22;5755;48.116;11.608;2023-05-10T06:42:12;13.40;99.90
11399;DHT22;5755;48.116;11.608;2023-05-10T06:44:40;13.30;99.90
11399;DHT22;5755;48.116;11.608;2023-05-10T06:47:07;13.40;99.90
11399;DHT22;5755;48.116;11.608;2023-05-10T06:49:34;13.40;99.90
11399;DHT22;5755;48.116;11.608;2023-05-10T06:52:14;13.40;99.90
11399;DHT22;5755;48.116;11.608;2023-05-10T06:54:48;13.50;99.90
11399;DHT22;5755;48.116;11.608;2023-05-10T06:57:21;13.60;99.90
11399;DHT22;5755;48.116;11.608;2023-05-10T06:59:52;13.70;99.90
11399;DHT22;5755;48.116;11.608;2023-05-10T07:02:21;13.70;99.90
11399;DHT22;5755;48.116;11.608;2023-05-10T07:05:02;13.70;99.90
11399;DHT22;5755;48.116;11.608;2023-05-10T07:07:43;13.80;99.90
11399;DHT22;5755;48.116;11.608;2023-05-10T07:10:25;13.90;99.90
11399;DHT22;5755;48.116;11.608;2023-05-10T07:13:07;13.90;99.90
11399;DHT22;5755;48.116;11.608;2023-05-10T07:15:35;13.90;99.90
11399;DHT22;5755;48.116;11.608;2023-05-10T07:18:23;13.90;99.90
11399;DHT22;5755;48.116;11.608;2023-05-10T07:21:03;14.00;99.90
11399;DHT22;5755;48.116;11.608;2023-05-10T07:23:31;14.10;99.90
11399;DHT22;5755;48.116;11.608;2023-05-10T07:26:00;14.10;99.90
11399;DHT22;5755;48.116;11.608;2023-05-10T07:28:42;14.20;99.90
11399;DHT22;5755;48.116;11.608;2023-05-10T07:31:30;14.40;99.90
11399;DHT22;5755;48.116;11.608;2023-05-10T07:37:11;15.40;99.00
11399;DHT22;5755;48.116;11.608;2023-05-10T07:39:52;15.60;98.90
11399;DHT22;5755;48.116;11.608;2023-05-10T07:42:52;15.60;97.00
11399;DHT22;5755;48.116;11.608;2023-05-10T07:45:33;15.40;97.00
11399;DHT22;5755;48.116;11.608;2023-05-10T07:48:14;15.50;97.00
11399;DHT22;5755;48.116;11.608;2023-05-10T07:50:41;15.60;97.00
11399;DHT22;5755;48.116;11.608;2023-05-10T07:53:08;15.90;96.40
11399;DHT22;5755;48.116;11.608;2023-05-10T07:55:59;16.10;96.10
11399;DHT22;5755;48.116;11.608;2023-05-10T07:59:05;16.00;94.70
11399;DHT22;5755;48.116;11.608;2023-05-10T08:01:52;16.00;94.10
11399;DHT22;5755;48.116;11.608;2023-05-10T08:04:34;15.90;93.90
11399;DHT22;5755;48.116;11.608;2023-05-10T08:10:40;16.60;92.90
11399;DHT22;5755;48.116;11.608;2023-05-10T08:13:21;17.00;91.90
11399;DHT22;5755;48.116;11.608;2023-05-10T08:16:11;17.00;90.80
11399;DHT22;5755;48.116;11.608;2023-05-10T08:18:39;16.80;91.90
11399;DHT22;5755;48.116;11.608;2023-05-10T08:21:07;17.00;90.80
11399;DHT22;5755;48.116;11.608;2023-05-10T08:23:37;17.00;91.20
11399;DHT22;5755;48.116;11.608;2023-05-10T08:26:04;16.80;91.30
11399;DHT22;5755;48.116;11.608;2023-05-10T08:28:46;17.00;90.90
11399;DHT22;5755;48.116;11.608;2023-05-10T08:31:15;17.10;90.40
11399;DHT22;5755;48.116;11.608;2023-05-10T08:33:57;17.10;84.80
11399;DHT22;5755;48.116;11.608;2023-05-10T08:36:25;17.20;87.40
11399;DHT22;5755;48.116;11.608;2023-05-10T08:38:53;16.70;83.80
11399;DHT22;5755;48.116;11.608;2023-05-10T08:41:22;16.50;87.70
11399;DHT22;5755;48.116;11.608;2023-05-10T08:43:50;16.20;89.00
11399;DHT22;5755;48.116;11.608;2023-05-10T08:46:21;16.10;91.20
11399;DHT22;5755;48.116;11.608;2023-05-10T08:48:49;15.80;90.80
11399;DHT22;5755;48.116;11.608;2023-05-10T08:51:22;15.50;92.50
11399;DHT22;5755;48.116;11.608;2023-05-10T08:54:03;15.30;92.30
11399;DHT22;5755;48.116;11.608;2023-05-10T08:56:38;15.10;93.80
11399;DHT22;5755;48.116;11.608;2023-05-10T08:59:19;15.20;93.60
11399;DHT22;5755;48.116;11.608;2023-05-10T09:08:06;15.30;94.10
11399;DHT22;5755;48.116;11.608;2023-05-10T09:10:48;15.20;94.60
11399;DHT22;5755;48.116;11.608;2023-05-10T09:13:36;15.10;94.40
11399;DHT22;5755;48.116;11.608;2023-05-10T09:19:23;15.30;94.40
11399;DHT22;5755;48.116;11.608;2023-05-10T09:22:35;15.80;93.80
11399;DHT22;5755;48.116;11.608;2023-05-10T09:25:18;17.10;90.70
11399;DHT22;5755;48.116;11.608;2023-05-10T09:27:59;17.40;79.00
11399;DHT22;5755;48.116;11.608;2023-05-10T09:30:33;17.20;78.80
11399;DHT22;5755;48.116;11.608;2023-05-10T09:33:01;17.30;77.90
11399;DHT22;5755;48.116;11.608;2023-05-10T09:46:29;16.20;90.00
11399;DHT22;5755;48.116;11.608;2023-05-10T09:56:35;16.70;88.90
11399;DHT22;5755;48.116;11.608;2023-05-10T10:09:35;18.30;71.30
11399;DHT22;5755;48.116;11.608;2023-05-10T10:12:17;18.50;62.10
11399;DHT22;5755;48.116;11.608;2023-05-10T10:15:08;18.40;58.70
11399;DHT22;5755;48.116;11.608;2023-05-10T10:51:36;19.50;57.00
11399;DHT22;5755;48.116;11.608;2023-05-10T10:54:09;19.80;55.00
11399;DHT22;5755;48.116;11.608;2023-05-10T10:56:36;19.70;51.60
11399;DHT22;5755;48.116;11.608;2023-05-10T10:59:02;19.80;46.10
11399;DHT22;5755;48.116;11.608;2023-05-10T11:01:33;19.70;41.90
11399;DHT22;5755;48.116;11.608;2023-05-10T11:04:20;19.50;40.60
11399;DHT22;5755;48.116;11.608;2023-05-10T11:06:47;19.10;45.60
11399;DHT22;5755;48.116;11.608;2023-05-10T11:09:14;18.60;45.20
11399;DHT22;5755;48.116;11.608;2023-05-10T11:11:52;18.20;45.50
11399;DHT22;5755;48.116;11.608;2023-05-10T11:14:21;17.70;51.50
11399;DHT22;5755;48.116;11.608;2023-05-10T11:16:50;17.50;59.80
11399;DHT22;5755;48.116;11.608;2023-05-10T11:19:21;16.90;78.60
11399;DHT22;5755;48.116;11.608;2023-05-10T11:32:22;15.80;94.50
11399;DHT22;5755;48.116;11.608;2023-05-10T11:35:08;15.60;95.10
11399;DHT22;5755;48.116;11.608;2023-05-10T11:37:51;15.40;97.00
11399;DHT22;5755;48.116;11.608;2023-05-10T11:40:17;15.30;97.50
11399;DHT22;5755;48.116;11.608;2023-05-10T11:42:45;15.10;97.10
11399;DHT22;5755;48.116;11.608;2023-05-10T11:45:27;15.00;97.50
11399;DHT22;5755;48.116;11.608;2023-05-10T11:48:08;14.90;96.90
11399;DHT22;5755;48.116;11.608;2023-05-10T11:50:37;14.60;97.10
11399;DHT22;5755;48.116;11.608;2023-05-10T11:53:04;14.30;98.20
11399;DHT22;5755;48.116;11.608;2023-05-10T11:55:33;14.00;99.30
11399;DHT22;5755;48.116;11.608;2023-05-10T11:58:01;13.80;99.90
11399;DHT22;5755;48.116;11.608;2023-05-10T12:00:29;13.60;99.90
11399;DHT22;5755;48.116;11.608;2023-05-10T12:03:04;13.50;99.90
11399;DHT22;5755;48.116;11.608;2023-05-10T12:05:32;13.50;99.90
11399;DHT22;5755;48.116;11.608;2023-05-10T12:08:14;13.50;99.90
11399;DHT22;5755;48.116;11.608;2023-05-10T12:11:05;13.50;99.90
11399;DHT22;5755;48.116;11.608;2023-05-10T12:13:54;13.50;99.90
11399;DHT22;5755;48.116;11.608;2023-05-10T12:16:35;13.40;99.90
11399;DHT22;5755;48.116;11.608;2023-05-10T12:19:03;13.30;99.90
11399;DHT22;5755;48.116;11.608;2023-05-10T12:21:46;13.30;99.90
11399;DHT22;5755;48.116;11.608;2023-05-10T12:24:15;13.30;99.90
11399;DHT22;5755;48.116;11.608;2023-05-10T12:26:45;13.30;99.90
11399;DHT22;5755;48.116;11.608;2023-05-10T12:29:14;13.40;99.90
11399;DHT22;5755;48.116;11.608;2023-05-10T12:31:52;13.30;99.90
11399;DHT22;5755;48.116;11.608;2023-05-10T12:34:24;13.20;99.90
11399;DHT22;5755;48.116;11.608;2023-05-10T12:36:57;13.10;99.90
11399;DHT22;5755;48.116;11.608;2023-05-10T12:39:41;13.30;99.90
11399;DHT22;5755;48.116;11.608;2023-05-10T12:42:09;13.30;99.90
11399;DHT22;5755;48.116;11.608;2023-05-10T12:44:37;13.50;99.90
11399;DHT22;5755;48.116;11.608;2023-05-10T12:47:05;13.60;99.90
11399;DHT22;5755;48.116;11.608;2023-05-10T13:07:08;14.10;99.90
11399;DHT22;5755;48.116;11.608;2023-05-10T13:10:29;14.00;99.80
11399;DHT22;5755;48.116;11.608;2023-05-10T13:24:35;14.20;99.60
11399;DHT22;5755;48.116;11.608;2023-05-10T13:27:02;14.30;99.60
11399;DHT22;5755;48.116;11.608;2023-05-10T13:32:42;14.10;99.70
11399;DHT22;5755;48.116;11.608;2023-05-10T13:35:23;14.00;99.90
11399;DHT22;5755;48.116;11.608;2023-05-10T13:37:50;14.00;99.90
11399;DHT22;5755;48.116;11.608;2023-05-10T13:40:20;14.20;99.90
11399;DHT22;5755;48.116;11.608;2023-05-10T13:46:23;14.00;99.90
11399;DHT22;5755;48.116;11.608;2023-05-10T13:48:51;14.00;99.90
11399;DHT22;5755;48.116;11.608;2023-05-10T13:51:18;13.90;99.90
11399;DHT22;5755;48.116;11.608;2023-05-10T13:53:46;13.90;99.90
11399;DHT22;5755;48.116;11.608;2023-05-10T13:59:52;13.80;99.90
11399;DHT22;5755;48.116;11.608;2023-05-10T14:02:54;13.90;99.90
11399;DHT22;5755;48.116;11.608;2023-05-10T14:05:23;13.80;99.90
11399;DHT22;5755;48.116;11.608;2023-05-10T14:07:50;13.70;99.90
11399;DHT22;5755;48.116;11.608;2023-05-10T14:10:18;13.70;99.90
11399;DHT22;5755;48.116;11.608;2023-05-10T14:12:45;13.80;99.90
11399;DHT22;5755;48.116;11.608;2023-05-10T14:15:14;13.70;99.90
11399;DHT22;5755;48.116;11.608;2023-05-10T14:18:07;13.70;99.90
11399;DHT22;5755;48.116;11.608;2023-05-10T14:20:56;13.70;99.90
11399;DHT22;5755;48.116;11.608;2023-05-10T14:23:23;13.80;99.90
11399;DHT22;5755;48.116;11.608;2023-05-10T14:25:51;13.80;99.90
11399;DHT22;5755;48.116;11.608;2023-05-10T14:28:18;13.80;99.90
11399;DHT22;5755;48.116;11.608;2023-05-10T14:30:50;13.70;99.90
11399;DHT22;5755;48.116;11.608;2023-05-10T14:33:52;13.90;99.90
11399;DHT22;5755;48.116;11.608;2023-05-10T14:36:58;13.90;99.90
11399;DHT22;5755;48.116;11.608;2023-05-10T14:39:28;13.80;99.90
11399;DHT22;5755;48.116;11.608;2023-05-10T14:44:44;13.90;99.90
11399;DHT22;5755;48.116;11.608;2023-05-10T15:15:50;13.50;99.90
11399;DHT22;5755;48.116;11.608;2023-05-10T15:24:52;13.40;99.90
11399;DHT22;5755;48.116;11.608;2023-05-10T15:41:42;13.30;99.90
11399;DHT22;5755;48.116;11.608;2023-05-10T15:44:10;13.20;99.90
11399;DHT22;5755;48.116;11.608;2023-05-10T15:47:14;13.10;99.90
11399;DHT22;5755;48.116;11.608;2023-05-10T15:49:58;13.10;99.90
11399;DHT22;5755;48.116;11.608;2023-05-10T15:53:10;13.00;99.90
11399;DHT22;5755;48.116;11.608;2023-05-10T15:56:13;12.90;99.90
11399;DHT22;5755;48.116;11.608;2023-05-10T15:58:42;12.90;99.90
11399;DHT22;5755;48.116;11.608;2023-05-10T16:01:23;12.90;99.90
11399;DHT22;5755;48.116;11.608;2023-05-10T16:03:50;12.90;99.90
11399;DHT22;5755;48.116;11.608;2023-05-10T16:06:18;12.90;99.90
11399;DHT22;5755;48.116;11.608;2023-05-10T16:08:45;12.80;99.90
11399;DHT22;5755;48.116;11.608;2023-05-10T16:11:13;12.70;99.90
11399;DHT22;5755;48.116;11.608;2023-05-10T16:13:41;12.50;99.90
11399;DHT22;5755;48.116;11.608;2023-05-10T16:16:08;12.70;99.90
11399;DHT22;5755;48.116;11.608;2023-05-10T16:18:36;12.70;99.90
11399;DHT22;5755;48.116;11.608;2023-05-10T16:21:03;12.70;99.90
11399;DHT22;5755;48.116;11.608;2023-05-10T16:23:31;12.70;99.90
11399;DHT22;5755;48.116;11.608;2023-05-10T16:25:58;12.70;99.90
11399;DHT22;5755;48.116;11.608;2023-05-10T16:28:26;12.70;99.90
11399;DHT22;5755;48.116;11.608;2023-05-10T16:31:07;12.70;99.90
11399;DHT22;5755;48.116;11.608;2023-05-10T16:34:17;12.80;99.90
11399;DHT22;5755;48.116;11.608;2023-05-10T16:36:48;12.80;99.90
11399;DHT22;5755;48.116;11.608;2023-05-10T16:41:44;12.80;99.90
11399;DHT22;5755;48.116;11.608;2023-05-10T16:44:11;12.70;99.90
11399;DHT22;5755;48.116;11.608;2023-05-10T16:46:40;12.70;99.90
11399;DHT22;5755;48.116;11.608;2023-05-10T16:49:21;12.60;99.90
11399;DHT22;5755;48.116;11.608;2023-05-10T16:51:48;12.60;99.90
11399;DHT22;5755;48.116;11.608;2023-05-10T16:57:18;12.80;99.90
11399;DHT22;5755;48.116;11.608;2023-05-10T17:00:50;12.70;99.90
11399;DHT22;5755;48.116;11.608;2023-05-10T17:06:46;12.50;99.90
11399;DHT22;5755;48.116;11.608;2023-05-10T17:09:27;12.40;99.90
11399;DHT22;5755;48.116;11.608;2023-05-10T17:12:15;12.40;99.90
11399;DHT22;5755;48.116;11.608;2023-05-10T17:14:42;12.30;99.90
11399;DHT22;5755;48.116;11.608;2023-05-10T17:19:58;12.10;99.90
11399;DHT22;5755;48.116;11.608;2023-05-10T17:25:34;11.90;99.90
11399;DHT22;5755;48.116;11.608;2023-05-10T17:28:01;11.80;99.90
11399;DHT22;5755;48.116;11.608;2023-05-10T17:30:28;11.70;99.90
11399;DHT22;5755;48.116;11.608;2023-05-10T17:32:57;11.60;99.90
11399;DHT22;5755;48.116;11.608;2023-05-10T17:35:26;11.50;99.90
11399;DHT22;5755;48.116;11.608;2023-05-10T17:37:54;11.50;99.90
11399;DHT22;5755;48.116;11.608;2023-05-10T17:40:23;11.60;99.90
11399;DHT22;5755;48.116;11.608;2023-05-10T17:42:50;11.60;99.90
11399;DHT22;5755;48.116;11.608;2023-05-10T17:45:18;11.70;99.90
11399;DHT22;5755;48.116;11.608;2023-05-10T17:47:51;11.70;99.90
11399;DHT22;5755;48.116;11.608;2023-05-10T17:50:32;11.60;99.90
11399;DHT22;5755;48.116;11.608;2023-05-10T17:53:15;11.50;99.90
11399;DHT22;5755;48.116;11.608;2023-05-10T17:58:57;11.30;99.90
11399;DHT22;5755;48.116;11.608;2023-05-10T18:18:25;11.20;99.90
11399;DHT22;5755;48.116;11.608;2023-05-10T18:20:55;11.20;99.90
11399;DHT22;5755;48.116;11.608;2023-05-10T18:23:23;11.40;99.90
11399;DHT22;5755;48.116;11.608;2023-05-10T18:25:50;11.40;99.90
11399;DHT22;5755;48.116;11.608;2023-05-10T18:28:17;11.40;99.90
11399;DHT22;5755;48.116;11.608;2023-05-10T18:30:45;11.30;99.90
11399;DHT22;5755;48.116;11.608;2023-05-10T18:33:12;11.30;99.90
11399;DHT22;5755;48.116;11.608;2023-05-10T18:35:41;11.30;99.90
11399;DHT22;5755;48.116;11.608;2023-05-10T18:38:09;11.20;99.90
11399;DHT22;5755;48.116;11.608;2023-05-10T18:40:37;11.40;99.90
11399;DHT22;5755;48.116;11.608;2023-05-10T18:43:05;11.40;99.90
11399;DHT22;5755;48.116;11.608;2023-05-10T18:48:59;11.40;99.90
11399;DHT22;5755;48.116;11.608;2023-05-10T18:55:14;11.40;99.90
11399;DHT22;5755;48.116;11.608;2023-05-10T19:00:45;11.20;99.90
11399;DHT22;5755;48.116;11.608;2023-05-10T19:03:12;11.10;99.90
11399;DHT22;5755;48.116;11.608;2023-05-10T19:05:39;11.10;99.90
11399;DHT22;5755;48.116;11.608;2023-05-10T19:08:06;11.10;99.90
11399;DHT22;5755;48.116;11.608;2023-05-10T19:10:34;11.10;99.90
11399;DHT22;5755;48.116;11.608;2023-05-10T19:13:01;11.20;99.90
11399;DHT22;5755;48.116;11.608;2023-05-10T19:15:28;11.20;99.90
11399;DHT22;5755;48.116;11.608;2023-05-10T19:26:32;11.00;99.90
11399;DHT22;5755;48.116;11.608;2023-05-10T19:32:23;11.10;99.90
11399;DHT22;5755;48.116;11.608;2023-05-10T19:35:19;11.10;99.90
11399;DHT22;5755;48.116;11.608;2023-05-10T19:37:46;11.00;99.90
11399;DHT22;5755;48.116;11.608;2023-05-10T19:40:14;11.10;99.90
11399;DHT22;5755;48.116;11.608;2023-05-10T19:42:43;11.00;99.90
11399;DHT22;5755;48.116;11.608;2023-05-10T19:45:10;11.10;99.90
11399;DHT22;5755;48.116;11.608;2023-05-10T19:47:39;11.10;99.90
11399;DHT22;5755;48.116;11.608;2023-05-10T19:50:07;11.10;99.90
11399;DHT22;5755;48.116;11.608;2023-05-10T19:52:34;10.90;99.90
11399;DHT22;5755;48.116;11.608;2023-05-10T19:55:01;11.00;99.90
11399;DHT22;5755;48.116;11.608;2023-05-10T19:57:29;10.90;99.90
11399;DHT22;5755;48.116;11.608;2023-05-10T19:59:58;10.80;99.90
11399;DHT22;5755;48.116;11.608;2023-05-10T20:02:36;10.90;99.90
11399;DHT22;5755;48.116;11.608;2023-05-10T20:05:03;11.00;99.90
11399;DHT22;5755;48.116;11.608;2023-05-10T20:07:30;11.00;99.90
11399;DHT22;5755;48.116;11.608;2023-05-10T20:09:58;11.10;99.90
11399;DHT22;5755;48.116;11.608;2023-05-10T20:12:25;11.00;99.90
11399;DHT22;5755;48.116;11.608;2023-05-10T20:14:52;10.90;99.90
11399;DHT22;5755;48.116;11.608;2023-05-10T20:17:21;11.00;99.90
11399;DHT22;5755;48.116;11.608;2023-05-10T20:19:48;11.00;99.90
11399;DHT22;5755;48.116;11.608;2023-05-10T20:22:15;11.00;99.90
11399;DHT22;5755;48.116;11.608;2023-05-10T20:24:42;11.10;99.90
11399;DHT22;5755;48.116;11.608;2023-05-10T20:27:08;11.00;99.90
11399;DHT22;5755;48.116;11.608;2023-05-10T20:29:35;11.00;99.90
11399;DHT22;5755;48.116;11.608;2023-05-10T20:32:02;11.00;99.90
11399;DHT22;5755;48.116;11.608;2023-05-10T20:34:32;11.00;99.90
11399;DHT22;5755;48.116;11.608;2023-05-10T20:36:59;11.00;99.90
11399;DHT22;5755;48.116;11.608;2023-05-10T20:39:27;10.90;99.90
11399;DHT22;5755;48.116;11.608;2023-05-10T20:41:55;10.90;99.90
11399;DHT22;5755;48.116;11.608;2023-05-10T20:44:23;10.70;99.90
11399;DHT22;5755;48.116;11.608;2023-05-10T20:46:49;10.70;99.90
11399;DHT22;5755;48.116;11.608;2023-05-10T20:49:16;10.80;99.90
11399;DHT22;5755;48.116;11.608;2023-05-10T20:51:45;10.80;99.90
11399;DHT22;5755;48.116;11.608;2023-05-10T20:54:13;10.80;99.90
11399;DHT22;5755;48.116;11.608;2023-05-10T20:56:52;10.80;99.90
11399;DHT22;5755;48.116;11.608;2023-05-10T20:59:19;10.80;99.90
11399;DHT22;5755;48.116;11.608;2023-05-10T21:01:46;10.80;99.90
11399;DHT22;5755;48.116;11.608;2023-05-10T21:04:14;10.70;99.90
11399;DHT22;5755;48.116;11.608;2023-05-10T21:06:42;10.80;99.90
11399;DHT22;5755;48.116;11.608;2023-05-10T21:09:11;10.80;99.90
11399;DHT22;5755;48.116;11.608;2023-05-10T21:11:41;10.80;99.90
11399;DHT22;5755;48.116;11.608;2023-05-10T21:14:08;10.60;99.90
11399;DHT22;5755;48.116;11.608;2023-05-10T21:16:35;10.60;99.90
11399;DHT22;5755;48.116;11.608;2023-05-10T21:34:51;10.80;99.90
11399;DHT22;5755;48.116;11.608;2023-05-10T21:37:19;10.80;99.90
11399;DHT22;5755;48.116;11.608;2023-05-10T21:39:45;10.70;99.90
11399;DHT22;5755;48.116;11.608;2023-05-10T21:42:12;10.60;99.90
11399;DHT22;5755;48.116;11.608;2023-05-10T21:44:40;10.60;99.90
11399;DHT22;5755;48.116;11.608;2023-05-10T21:47:06;10.60;99.90
11399;DHT22;5755;48.116;11.608;2023-05-10T21:49:34;10.50;99.90
11399;DHT22;5755;48.116;11.608;2023-05-10T21:52:05;10.50;99.90
11399;DHT22;5755;48.116;11.608;2023-05-10T21:54:32;10.50;99.90
11399;DHT22;5755;48.116;11.608;2023-05-10T21:56:59;10.50;99.90
11399;DHT22;5755;48.116;11.608;2023-05-10T21:59:26;10.40;99.90
11399;DHT22;5755;48.116;11.608;2023-05-10T22:01:53;10.40;99.90
11399;DHT22;5755;48.116;11.608;2023-05-10T22:04:20;10.40;99.90
11399;DHT22;5755;48.116;11.608;2023-05-10T22:06:47;10.50;99.90
11399;DHT22;5755;48.116;11.608;2023-05-10T22:11:46;10.60;99.90
11399;DHT22;5755;48.116;11.608;2023-05-10T22:14:13;10.50;99.90
11399;DHT22;5755;48.116;11.608;2023-05-10T22:16:40;10.40;99.90
11399;DHT22;5755;48.116;11.608;2023-05-10T22:19:07;10.40;99.90
11399;DHT22;5755;48.116;11.608;2023-05-10T22:21:34;10.40;99.90
11399;DHT22;5755;48.116;11.608;2023-05-10T22:24:01;10.40;99.90
11399;DHT22;5755;48.116;11.608;2023-05-10T22:26:29;10.30;99.90
11399;DHT22;5755;48.116;11.608;2023-05-10T22:28:58;10.30;99.90
11399;DHT22;5755;48.116;11.608;2023-05-10T22:31:26;10.30;99.90
11399;DHT22;5755;48.116;11.608;2023-05-10T22:33:53;10.20;99.90
11399;DHT22;5755;48.116;11.608;2023-05-10T22:36:20;10.10;99.90
11399;DHT22;5755;48.116;11.608;2023-05-10T22:38:47;10.10;99.90
11399;DHT22;5755;48.116;11.608;2023-05-10T22:41:14;10.10;99.90
11399;DHT22;5755;48.116;11.608;2023-05-10T22:43:43;10.10;99.90
11399;DHT22;5755;48.116;11.608;2023-05-10T22:46:10;10.00;99.90
11399;DHT22;5755;48.116;11.608;2023-05-10T22:48:37;10.00;99.90
11399;DHT22;5755;48.116;11.608;2023-05-10T22:51:05;9.90;99.90
11399;DHT22;5755;48.116;11.608;2023-05-10T22:53:32;9.90;99.90
11399;DHT22;5755;48.116;11.608;2023-05-10T22:55:59;9.80;99.90
11399;DHT22;5755;48.116;11.608;2023-05-10T22:58:26;9.80;99.90
11399;DHT22;5755;48.116;11.608;2023-05-10T23:00:55;9.90;99.90
11399;DHT22;5755;48.116;11.608;2023-05-10T23:03:22;9.90;99.90
11399;DHT22;5755;48.116;11.608;2023-05-10T23:05:49;9.80;99.90
11399;DHT22;5755;48.116;11.608;2023-05-10T23:08:16;9.80;99.90
11399;DHT22;5755;48.116;11.608;2023-05-10T23:10:43;9.80;99.90
11399;DHT22;5755;48.116;11.608;2023-05-10T23:13:10;9.90;99.90
11399;DHT22;5755;48.116;11.608;2023-05-10T23:15:38;9.80;99.90
11399;DHT22;5755;48.116;11.608;2023-05-10T23:18:06;9.80;99.90
11399;DHT22;5755;48.116;11.608;2023-05-10T23:20:34;9.80;99.90
11399;DHT22;5755;48.116;11.608;2023-05-10T23:23:01;9.70;99.90
11399;DHT22;5755;48.116;11.608;2023-05-10T23:25:28;9.70;99.90
11399;DHT22;5755;48.116;11.608;2023-05-10T23:27:57;9.70;99.90
11399;DHT22;5755;48.116;11.608;2023-05-10T23:30:24;9.80;99.90
11399;DHT22;5755;48.116;11.608;2023-05-10T23:32:51;9.80;99.90
11399;DHT22;5755;48.116;11.608;2023-05-10T23:35:20;9.80;99.90
11399;DHT22;5755;48.116;11.608;2023-05-10T23:37:46;9.80;99.90
11399;DHT22;5755;48.116;11.608;2023-05-10T23:40:14;9.80;99.90
11399;DHT22;5755;48.116;11.608;2023-05-10T23:42:41;9.70;99.90
11399;DHT22;5755;48.116;11.608;2023-05-10T23:45:08;9.70;99.90
11399;DHT22;5755;48.116;11.608;2023-05-10T23:47:35;9.80;99.90
11399;DHT22;5755;48.116;11.608;2023-05-10T23:50:03;9.80;99.90
11399;DHT22;5755;48.116;11.608;2023-05-10T23:52:32;9.80;99.90
11399;DHT22;5755;48.116;11.608;2023-05-10T23:54:59;9.70;99.90
11399;DHT22;5755;48.116;11.608;2023-05-10T23:57:26;9.70;99.90
11399;DHT22;5755;48.116;11.608;2023-05-10T23:59:53;9.70;99.90
